createdAt,value
2022-08-09T00:00:23.367Z,4.53
2022-08-09T00:02:52.425Z,6.03
2022-08-09T00:06:16.407Z,4.38
2022-08-09T00:08:11.349Z,4.07
2022-08-09T00:10:42.538Z,4.32
2022-08-09T00:13:17.278Z,7.55
2022-08-09T00:15:58.896Z,6.13
2022-08-09T00:18:30.378Z,5.43
2022-08-09T00:20:59.569Z,6.03
2022-08-09T00:23:57.958Z,4.35
2022-08-09T00:26:16.742Z,5.70
2022-08-09T00:28:52.237Z,8.65
2022-08-09T00:31:57.092Z,7.03
2022-08-09T00:34:11.020Z,6.07
2022-08-09T00:36:40.106Z,7.00
2022-08-09T00:39:16.918Z,7.03
2022-08-09T00:44:10.391Z,7.63
2022-08-09T00:44:47.239Z,5.65
2022-08-09T00:47:15.840Z,5.25
2022-08-09T00:49:54.587Z,4.97
2022-08-09T00:52:29.969Z,4.82
2022-08-09T00:55:00.380Z,3.90
2022-08-09T00:57:34.709Z,4.72
2022-08-09T01:00:20.674Z,5.43
2022-08-09T01:02:52.067Z,5.68
2022-08-09T01:05:52.001Z,4.57
2022-08-09T01:08:26.689Z,7.32
2022-08-09T01:11:09.558Z,6.88
2022-08-09T01:13:53.404Z,7.25
2022-08-09T01:16:32.866Z,9.52
2022-08-09T01:19:16.692Z,4.93
2022-08-09T01:21:53.792Z,7.50
2022-08-09T01:24:36.030Z,7.22
2022-08-09T01:27:11.110Z,5.60
2022-08-09T01:29:55.659Z,8.48
2022-08-09T01:32:30.681Z,5.93
2022-08-09T01:35:29.135Z,11.73
2022-08-09T01:38:15.508Z,9.27
2022-08-09T01:40:52.711Z,6.35
2022-08-09T01:43:42.234Z,6.75
2022-08-09T01:46:24.687Z,5.45
2022-08-09T01:48:56.216Z,8.05
2022-08-09T01:51:26.385Z,6.40
2022-08-09T01:53:58.107Z,7.50
2022-08-09T01:56:27.762Z,5.00
2022-08-09T01:58:58.839Z,6.05
2022-08-09T02:01:30.599Z,7.88
2022-08-09T02:04:19.162Z,8.35
2022-08-09T02:07:05.610Z,6.38
2022-08-09T02:09:42.654Z,8.55
2022-08-09T02:12:21.184Z,5.97
2022-08-09T02:14:53.485Z,7.93
2022-08-09T02:17:55.014Z,7.63
2022-08-09T02:20:26.281Z,9.63
2022-08-09T02:23:09.017Z,6.72
2022-08-09T02:25:42.569Z,6.90
2022-08-09T02:28:21.127Z,8.25
2022-08-09T02:30:59.677Z,7.88
2022-08-09T02:33:37.691Z,8.20
2022-08-09T02:36:10.726Z,8.77
2022-08-09T02:38:47.531Z,6.85
2022-08-09T02:41:19.108Z,8.27
2022-08-09T02:43:54.662Z,8.30
2022-08-09T02:46:28.738Z,10.52
2022-08-09T02:49:00.013Z,9.65
2022-08-09T02:51:33.099Z,8.95
2022-08-09T02:54:10.837Z,7.38
2022-08-09T02:56:51.308Z,12.00
2022-08-09T02:59:26.523Z,8.77
2022-08-09T03:02:11.939Z,8.02
2022-08-09T03:04:41.026Z,7.38
2022-08-09T03:07:14.141Z,9.55
2022-08-09T03:09:54.352Z,9.45
2022-08-09T03:12:26.754Z,8.10
2022-08-09T03:14:55.718Z,7.57
2022-08-09T03:17:27.143Z,9.75
2022-08-09T03:20:03.231Z,8.27
2022-08-09T03:22:41.561Z,7.47
2022-08-09T03:25:26.211Z,10.88
2022-08-09T03:28:03.531Z,9.50
2022-08-09T03:30:34.117Z,12.13
2022-08-09T03:33:17.474Z,9.95
2022-08-09T03:36:12.453Z,8.88
2022-08-09T03:38:37.322Z,10.75
2022-08-09T03:41:10.225Z,10.00
2022-08-09T03:44:03.442Z,10.23
2022-08-09T03:46:31.945Z,9.13
2022-08-09T03:49:03.980Z,11.13
2022-08-09T03:51:55.979Z,11.68
2022-08-09T03:54:29.435Z,9.00
2022-08-09T03:57:00.343Z,10.90
2022-08-09T03:59:53.536Z,11.68
2022-08-09T04:02:26.099Z,9.90
2022-08-09T04:05:05.699Z,10.83
2022-08-09T04:07:53.528Z,10.93
2022-08-09T04:10:29.209Z,14.00
2022-08-09T04:13:00.798Z,12.50
2022-08-09T04:18:21.150Z,13.68
2022-08-09T04:20:51.653Z,13.15
2022-08-09T04:23:24.655Z,12.13
2022-08-09T04:25:53.353Z,11.13
2022-08-09T04:28:33.688Z,10.65
2022-08-09T04:31:05.551Z,10.30
2022-08-09T04:33:52.157Z,12.65
2022-08-09T04:36:24.358Z,11.27
2022-08-09T04:38:52.728Z,11.07
2022-08-09T04:41:23.779Z,10.52
2022-08-09T04:44:05.599Z,12.40
2022-08-09T04:46:37.846Z,11.27
2022-08-09T04:49:40.420Z,12.02
2022-08-09T04:52:18.546Z,12.80
2022-08-09T04:55:01.821Z,11.65
2022-08-09T04:57:59.242Z,11.63
2022-08-09T05:00:20.819Z,11.30
2022-08-09T05:02:52.678Z,10.70
2022-08-09T05:05:32.253Z,15.15
2022-08-09T05:08:14.066Z,15.40
2022-08-09T05:10:43.026Z,11.57
2022-08-09T05:13:10.987Z,10.43
2022-08-09T05:15:47.989Z,12.50
2022-08-09T05:18:38.008Z,10.80
2022-08-09T05:21:09.730Z,10.63
2022-08-09T05:23:57.900Z,11.45
2022-08-09T05:26:36.259Z,10.65
2022-08-09T05:29:05.623Z,13.35
2022-08-09T05:31:44.158Z,12.27
2022-08-09T05:34:17.661Z,11.45
2022-08-09T05:36:46.752Z,14.15
2022-08-09T05:39:28.562Z,12.02
2022-08-09T05:42:01.670Z,14.05
2022-08-09T05:44:34.523Z,13.77
2022-08-09T05:47:04.905Z,14.75
2022-08-09T05:50:30.248Z,10.95
2022-08-09T05:52:21.731Z,15.65
2022-08-09T05:54:55.343Z,17.73
2022-08-09T05:57:24.987Z,12.45
2022-08-09T06:00:13.560Z,16.38
2022-08-09T06:02:46.522Z,14.38
2022-08-09T06:05:14.859Z,15.55
2022-08-09T06:07:44.182Z,12.65
2022-08-09T06:10:39.473Z,12.18
2022-08-09T06:13:18.352Z,13.63
2022-08-09T06:15:47.225Z,11.68
2022-08-09T06:18:24.938Z,11.93
2022-08-09T06:20:57.141Z,16.50
2022-08-09T06:26:20.143Z,18.60
2022-08-09T06:29:00.072Z,14.23
2022-08-09T06:31:31.300Z,12.93
2022-08-09T06:34:07.791Z,14.20
2022-08-09T06:36:37.331Z,11.85
2022-08-09T06:39:12.587Z,12.65
2022-08-09T06:42:09.122Z,14.48
2022-08-09T06:44:30.002Z,11.52
2022-08-09T06:46:58.136Z,12.02
2022-08-09T06:49:44.651Z,11.45
2022-08-09T06:52:15.910Z,13.93
2022-08-09T06:54:44.130Z,9.60
2022-08-09T06:57:14.085Z,10.07
2022-08-09T07:00:50.169Z,9.90
2022-08-09T07:02:32.172Z,9.93
2022-08-09T07:05:00.415Z,10.38
2022-08-09T07:07:59.491Z,8.27
2022-08-09T07:10:29.673Z,8.38
2022-08-09T07:13:05.342Z,9.85
2022-08-09T07:15:53.870Z,7.15
2022-08-09T07:18:38.704Z,10.18
2022-08-09T07:21:08.011Z,6.78
2022-08-09T07:23:36.446Z,8.15
2022-08-09T07:26:14.717Z,7.55
2022-08-09T07:29:08.223Z,8.45
2022-08-09T07:31:38.230Z,7.50
2022-08-09T07:34:08.226Z,6.05
2022-08-09T07:36:48.123Z,4.80
2022-08-09T07:39:20.177Z,7.47
2022-08-09T07:42:05.256Z,6.93
2022-08-09T07:44:52.540Z,8.63
2022-08-09T07:47:23.143Z,7.30
2022-08-09T07:50:04.345Z,8.18
2022-08-09T07:52:35.765Z,8.23
2022-08-09T07:55:08.872Z,6.35
2022-08-09T07:57:37.849Z,6.88
2022-08-09T08:00:20.886Z,8.45
2022-08-09T08:03:08.095Z,8.63
2022-08-09T08:05:54.107Z,5.13
2022-08-09T08:09:00.087Z,5.68
2022-08-09T08:12:09.059Z,5.78
2022-08-09T08:14:01.820Z,7.88
2022-08-09T08:16:32.574Z,5.53
2022-08-09T08:19:04.527Z,7.03
2022-08-09T08:21:32.882Z,8.50
2022-08-09T08:24:01.212Z,4.63
2022-08-09T08:26:55.042Z,5.85
2022-08-09T08:29:20.186Z,5.25
2022-08-09T08:32:03.525Z,5.88
2022-08-09T08:34:34.898Z,4.10
2022-08-09T08:37:05.091Z,4.53
2022-08-09T08:39:39.736Z,4.78
2022-08-09T08:42:11.983Z,3.83
2022-08-09T08:44:41.977Z,4.95
2022-08-09T08:47:14.394Z,3.83
2022-08-09T08:49:47.046Z,5.70
2022-08-09T08:52:58.103Z,4.15
2022-08-09T08:55:09.587Z,6.60
2022-08-09T08:57:38.058Z,5.60
2022-08-09T09:00:16.997Z,4.13
2022-08-09T09:03:04.461Z,3.53
2022-08-09T09:06:00.835Z,3.25
2022-08-09T09:08:31.819Z,5.45
2022-08-09T09:11:03.679Z,6.20
2022-08-09T09:13:41.571Z,2.90
2022-08-09T09:16:31.134Z,3.42
2022-08-09T09:22:11.772Z,3.17
2022-08-09T09:24:43.585Z,3.65
2022-08-09T09:27:22.102Z,6.07
2022-08-09T09:30:28.706Z,4.03
2022-08-09T09:33:13.697Z,2.00
2022-08-09T09:36:01.723Z,4.22
2022-08-09T09:38:45.631Z,2.45
2022-08-09T09:41:33.272Z,3.83
2022-08-09T09:44:27.749Z,3.35
2022-08-09T09:47:06.796Z,3.60
2022-08-09T09:49:56.294Z,4.85
2022-08-09T09:52:52.248Z,3.33
2022-08-09T09:55:24.019Z,4.80
2022-08-09T09:58:18.269Z,3.42
2022-08-09T10:00:55.095Z,2.05
2022-08-09T10:03:44.007Z,2.83
2022-08-09T10:06:13.278Z,2.60
2022-08-09T10:08:55.193Z,4.53
2022-08-09T10:11:59.489Z,3.70
2022-08-09T10:14:30.701Z,2.65
2022-08-09T10:17:39.671Z,2.58
2022-08-09T10:19:58.910Z,3.75
2022-08-09T10:22:33.714Z,4.20
2022-08-09T10:25:12.376Z,2.67
2022-08-09T10:27:55.740Z,3.45
2022-08-09T10:33:44.804Z,2.40
2022-08-09T10:36:02.821Z,3.88
2022-08-09T10:38:54.556Z,3.08
2022-08-09T10:41:21.654Z,2.10
2022-08-09T10:44:01.331Z,3.17
2022-08-09T10:47:20.417Z,4.47
2022-08-09T10:50:04.456Z,3.90
2022-08-09T10:52:54.597Z,2.53
2022-08-09T10:55:24.119Z,2.78
2022-08-09T10:57:55.444Z,1.42
2022-08-09T11:00:35.487Z,2.10
2022-08-09T11:03:51.345Z,2.00
2022-08-09T11:06:25.314Z,2.47
2022-08-09T11:08:54.185Z,2.33
2022-08-09T11:11:23.360Z,4.28
2022-08-09T11:14:28.603Z,1.83
2022-08-09T11:16:58.434Z,2.22
2022-08-09T11:20:10.635Z,3.88
2022-08-09T11:23:02.949Z,3.75
2022-08-09T11:25:47.650Z,2.47
2022-08-09T11:28:38.805Z,3.00
2022-08-09T11:31:50.335Z,4.10
2022-08-09T11:34:30.992Z,2.13
2022-08-09T11:37:01.415Z,3.10
2022-08-09T11:39:37.999Z,2.13
2022-08-09T11:42:14.585Z,3.40
2022-08-09T11:44:46.548Z,1.77
2022-08-09T11:50:54.129Z,1.95
2022-08-09T11:53:59.238Z,3.67
2022-08-09T11:56:41.808Z,2.25
2022-08-09T11:59:12.107Z,2.92
2022-08-09T12:02:17.154Z,3.53
2022-08-09T12:04:37.980Z,2.20
2022-08-09T12:07:08.250Z,3.28
2022-08-09T12:09:37.585Z,2.83
2022-08-09T12:12:13.081Z,3.45
2022-08-09T12:15:07.659Z,2.42
2022-08-09T12:17:43.475Z,2.22
2022-08-09T12:20:16.482Z,3.65
2022-08-09T12:22:55.693Z,1.48
2022-08-09T12:25:37.649Z,2.70
2022-08-09T12:30:58.573Z,2.03
2022-08-09T12:33:51.443Z,2.13
2022-08-09T12:36:31.358Z,1.23
2022-08-09T12:39:02.688Z,2.50
2022-08-09T12:44:12.744Z,1.95
2022-08-09T12:46:41.603Z,2.20
2022-08-09T12:49:11.787Z,1.48
2022-08-09T12:52:00.656Z,1.20
2022-08-09T12:54:31.149Z,2.30
2022-08-09T12:56:59.824Z,1.50
2022-08-09T12:59:57.405Z,1.38
2022-08-09T13:02:21.679Z,1.08
2022-08-09T13:05:02.508Z,1.60
2022-08-09T13:07:50.652Z,2.15
2022-08-09T13:10:20.386Z,1.67
2022-08-09T13:13:09.626Z,2.72
2022-08-09T13:15:37.478Z,2.08
2022-08-09T13:18:09.866Z,1.90
2022-08-09T13:22:34.086Z,2.65
2022-08-09T13:24:06.155Z,2.33
2022-08-09T13:26:37.462Z,2.47
2022-08-09T13:29:12.991Z,1.30
2022-08-09T13:32:15.711Z,1.25
2022-08-09T13:34:48.150Z,1.30
2022-08-09T13:37:24.566Z,1.65
2022-08-09T13:41:49.608Z,1.25
2022-08-09T13:42:54.537Z,0.90
2022-08-09T13:45:31.932Z,4.38
2022-08-09T13:48:11.090Z,3.15
2022-08-09T13:50:39.114Z,1.90
2022-08-09T13:53:07.270Z,2.28
2022-08-09T13:55:36.953Z,1.55
2022-08-09T13:58:08.054Z,1.95
2022-08-09T14:00:50.344Z,2.53
2022-08-09T14:04:03.277Z,2.67
2022-08-09T14:06:19.333Z,1.88
2022-08-09T14:08:54.164Z,1.45
2022-08-09T14:11:23.038Z,2.58
2022-08-09T14:14:22.623Z,1.17
2022-08-09T14:16:40.577Z,1.73
2022-08-09T14:19:08.541Z,1.88
2022-08-09T14:21:36.700Z,2.33
2022-08-09T14:24:18.355Z,1.52
2022-08-09T14:26:51.903Z,2.60
2022-08-09T14:30:04.182Z,2.25
2022-08-09T14:32:13.354Z,1.30
2022-08-09T14:34:47.808Z,2.30
2022-08-09T14:37:28.502Z,1.70
2022-08-09T14:40:10.424Z,2.85
2022-08-09T14:42:41.294Z,1.75
2022-08-09T14:46:39.116Z,2.17
2022-08-09T14:48:03.536Z,2.25
2022-08-09T14:50:34.264Z,2.15
2022-08-09T14:53:06.374Z,1.20
2022-08-09T14:55:42.335Z,1.73
2022-08-09T14:58:16.558Z,1.23
2022-08-09T15:00:48.137Z,2.85
2022-08-09T15:03:20.145Z,2.25
2022-08-09T15:05:52.311Z,1.60
2022-08-09T15:08:24.199Z,1.77
2022-08-09T15:11:00.662Z,1.23
2022-08-09T15:13:56.531Z,2.40
2022-08-09T15:16:22.315Z,1.55
2022-08-09T15:18:52.475Z,1.63
2022-08-09T15:21:55.465Z,1.05
2022-08-09T15:24:12.540Z,3.22
2022-08-09T15:26:45.337Z,2.03
2022-08-09T15:30:56.257Z,1.38
2022-08-09T15:32:04.026Z,2.72
2022-08-09T15:34:35.390Z,1.05
2022-08-09T15:37:23.724Z,1.45
2022-08-09T15:39:53.616Z,2.10
2022-08-09T15:44:51.110Z,4.75
2022-08-09T15:47:22.288Z,1.48
2022-08-09T15:50:04.732Z,2.20
2022-08-09T15:52:34.930Z,2.03
2022-08-09T15:55:03.483Z,2.17
2022-08-09T15:57:35.747Z,0.98
2022-08-09T16:00:17.096Z,1.90
2022-08-09T16:02:56.526Z,1.33
2022-08-09T16:05:47.273Z,2.33
2022-08-09T16:08:29.980Z,2.20
2022-08-09T16:10:59.552Z,1.95
2022-08-09T16:14:04.136Z,2.28
2022-08-09T16:16:18.364Z,1.48
2022-08-09T16:21:17.682Z,1.75
2022-08-09T16:23:55.427Z,4.28
2022-08-09T16:26:33.774Z,5.70
2022-08-09T16:29:10.493Z,1.98
2022-08-09T16:32:18.309Z,2.92
2022-08-09T16:34:28.735Z,4.30
2022-08-09T16:36:57.034Z,2.35
2022-08-09T16:39:25.933Z,1.27
2022-08-09T16:42:04.217Z,1.67
2022-08-09T16:44:32.914Z,1.98
2022-08-09T16:47:03.861Z,2.90
2022-08-09T16:50:30.302Z,2.30
2022-08-09T16:52:38.278Z,2.10
2022-08-09T16:55:15.597Z,3.08
2022-08-09T16:58:08.682Z,2.17
2022-08-09T17:00:32.854Z,1.35
2022-08-09T17:03:00.781Z,3.15
2022-08-09T17:06:07.352Z,2.67
2022-08-09T17:08:46.137Z,1.65
2022-08-09T17:11:08.308Z,2.78
2022-08-09T17:13:38.937Z,1.85
2022-08-09T17:16:13.033Z,2.33
2022-08-09T17:18:40.995Z,2.97
2022-08-09T17:21:15.316Z,2.25
2022-08-09T17:24:20.514Z,3.70
2022-08-09T17:26:38.073Z,3.72
2022-08-09T17:29:11.789Z,2.20
2022-08-09T17:31:49.435Z,2.22
2022-08-09T17:35:00.556Z,2.97
2022-08-09T17:37:07.469Z,2.72
2022-08-09T17:39:53.086Z,3.55
2022-08-09T17:42:41.454Z,4.95
2022-08-09T17:45:15.897Z,2.95
2022-08-09T17:47:54.741Z,3.95
2022-08-09T17:50:24.951Z,2.50
2022-08-09T17:53:19.471Z,2.95
2022-08-09T17:55:54.145Z,3.17
2022-08-09T17:58:26.991Z,3.75
2022-08-09T18:00:56.498Z,3.70
2022-08-09T18:03:25.698Z,3.78
2022-08-09T18:05:54.382Z,3.08
2022-08-09T18:08:27.530Z,2.85
2022-08-09T18:11:01.554Z,5.70
2022-08-09T18:13:40.067Z,3.25
2022-08-09T18:16:28.878Z,2.55
2022-08-09T18:18:59.438Z,2.78
2022-08-09T18:21:41.207Z,5.72
2022-08-09T18:24:14.601Z,2.97
2022-08-09T18:26:46.717Z,2.60
2022-08-09T18:30:40.268Z,3.80
2022-08-09T18:32:05.678Z,3.60
2022-08-09T18:34:35.586Z,2.00
2022-08-09T18:37:03.887Z,2.42
2022-08-09T18:39:33.324Z,2.22
2022-08-09T18:42:08.867Z,2.20
2022-08-09T18:44:37.075Z,5.53
2022-08-09T18:47:12.544Z,2.47
2022-08-09T18:49:46.600Z,2.67
2022-08-09T18:52:24.938Z,3.17
2022-08-09T18:55:04.966Z,1.90
2022-08-09T18:57:43.178Z,2.03
2022-08-09T19:00:19.160Z,2.65
2022-08-09T19:02:48.764Z,3.28
2022-08-09T19:05:28.972Z,5.47
2022-08-09T19:08:10.698Z,3.65
2022-08-09T19:10:43.441Z,2.92
2022-08-09T19:13:22.012Z,2.10
2022-08-09T19:15:52.318Z,4.35
2022-08-09T19:18:34.216Z,2.63
2022-08-09T19:21:08.800Z,1.75
2022-08-09T19:24:32.219Z,2.65
2022-08-09T19:26:31.658Z,1.83
2022-08-09T19:29:03.372Z,4.20
2022-08-09T19:31:44.322Z,1.38
2022-08-09T19:36:51.905Z,2.38
2022-08-09T19:39:20.704Z,2.58
2022-08-09T19:42:15.040Z,2.20
2022-08-09T19:44:50.788Z,1.95
2022-08-09T19:47:23.614Z,1.98
2022-08-09T19:50:08.986Z,1.98
2022-08-09T19:52:51.446Z,2.50
2022-08-09T19:55:30.497Z,2.42
2022-08-09T19:58:16.385Z,2.92
2022-08-09T20:00:46.405Z,3.33
2022-08-09T20:04:10.449Z,3.53
2022-08-09T20:06:04.856Z,2.20
2022-08-09T20:08:51.036Z,2.60
2022-08-09T20:11:19.112Z,3.35
2022-08-09T20:13:53.650Z,3.67
2022-08-09T20:16:34.296Z,5.43
2022-08-09T20:19:49.652Z,3.03
2022-08-09T20:21:59.819Z,1.77
2022-08-09T20:24:29.501Z,3.40
2022-08-09T20:27:02.260Z,2.42
2022-08-09T20:29:37.443Z,2.25
2022-08-09T20:32:28.686Z,4.13
2022-08-09T20:34:54.809Z,2.20
2022-08-09T20:37:22.905Z,4.50
2022-08-09T20:40:14.773Z,5.43
2022-08-09T20:42:39.085Z,6.72
2022-08-09T20:47:58.570Z,3.40
2022-08-09T20:50:47.475Z,2.20
2022-08-09T20:53:21.071Z,4.03
2022-08-09T20:56:03.094Z,2.65
2022-08-09T20:58:32.260Z,2.70
2022-08-09T21:01:33.226Z,3.10
2022-08-09T21:05:49.245Z,3.38
2022-08-09T21:06:42.912Z,3.38
2022-08-09T21:09:11.775Z,3.10
2022-08-09T21:14:30.859Z,2.47
2022-08-09T21:17:01.917Z,3.17
2022-08-09T21:20:19.055Z,5.05
2022-08-09T21:22:42.134Z,2.60
2022-08-09T21:25:38.140Z,3.10
2022-08-09T21:28:07.551Z,2.22
2022-08-09T21:30:40.420Z,3.63
2022-08-09T21:33:10.529Z,3.15
2022-08-09T21:35:50.824Z,2.33
2022-08-09T21:38:31.069Z,3.10
2022-08-09T21:41:00.323Z,2.22
2022-08-09T21:43:55.966Z,3.53
2022-08-09T21:46:16.359Z,3.28
2022-08-09T21:48:49.236Z,2.95
2022-08-09T21:51:35.692Z,2.55
2022-08-09T21:54:04.550Z,2.25
2022-08-09T21:56:43.244Z,3.50
2022-08-09T21:59:20.399Z,2.70
2022-08-09T22:02:00.609Z,2.92
2022-08-09T22:04:56.919Z,4.95
2022-08-09T22:07:35.030Z,4.63
2022-08-09T22:10:08.505Z,2.92
2022-08-09T22:12:38.043Z,2.35
2022-08-09T22:15:16.654Z,6.50
2022-08-09T22:17:46.106Z,2.85
2022-08-09T22:20:17.121Z,2.33
2022-08-09T22:22:49.950Z,3.03
2022-08-09T22:26:05.757Z,3.83
2022-08-09T22:28:07.432Z,1.83
2022-08-09T22:30:36.526Z,3.72
2022-08-09T22:33:09.705Z,2.85
2022-08-09T22:36:01.271Z,2.60
2022-08-09T22:38:27.386Z,2.00
2022-08-09T22:40:57.440Z,1.92
2022-08-09T22:44:00.586Z,2.92
2022-08-09T22:48:17.011Z,1.77
2022-08-09T22:49:10.247Z,3.35
2022-08-09T22:51:49.446Z,2.67
2022-08-09T22:54:26.950Z,2.85
2022-08-09T22:56:56.668Z,4.03
2022-08-09T22:59:58.442Z,2.10
2022-08-09T23:02:15.130Z,3.35
2022-08-09T23:04:53.752Z,2.20
2022-08-09T23:08:22.797Z,2.75
2022-08-09T23:10:31.229Z,4.10
2022-08-09T23:12:59.754Z,1.90
2022-08-09T23:15:28.153Z,2.58
2022-08-09T23:17:57.051Z,2.47
2022-08-09T23:20:26.146Z,1.95
2022-08-09T23:22:55.643Z,2.25
2022-08-09T23:25:23.545Z,1.70
2022-08-09T23:28:14.986Z,2.13
2022-08-09T23:30:39.319Z,3.03
2022-08-09T23:33:07.217Z,3.38
2022-08-09T23:36:06.419Z,3.28
2022-08-09T23:38:24.555Z,3.88
2022-08-09T23:40:54.042Z,1.48
2022-08-09T23:43:22.070Z,3.67
2022-08-09T23:45:50.071Z,2.20
2022-08-09T23:48:19.511Z,2.47
2022-08-09T23:50:47.502Z,3.92
2022-08-09T23:53:15.386Z,2.67
2022-08-09T23:55:49.781Z,2.50
2022-08-09T23:58:26.222Z,1.98
